Time;durP1;ratioP1;P1;durP2;ratioP2;P2;SDS_P1;SDS_P2;PMS_P1;PMS_P2;Temp;Humidity;BMP_temperature;BMP_pressure;BME280_temperature;BME280_humidity;BME280_pressure;Samples;Min_cycle;Max_cycle;Signal;HPM_P1;HPM_P2
2024/02/25 00:01:11;;;;;;;53.90;23.77;;;;;;;;;;6170969;28;24413;-88
2024/02/25 00:04:40;;;;;;;226.27;97.37;;;;;;;;;;6205061;28;24929;-88
2024/02/25 00:08:05;;;;;;;15.68;7.50;;;;;;;;;;6216753;28;24505;-87
2024/02/25 00:11:50;;;;;;;157.90;64.78;;;;;;;;;;6220322;28;24484;-89
2024/02/25 00:18:41;;;;;;;4.17;1.80;;;;;;;;;;6222686;28;24428;-85
2024/02/25 00:21:56;;;;;;;3.15;1.88;;;;;;;;;;6230599;28;24512;-84
2024/02/25 00:25:20;;;;;;;4.20;2.00;;;;;;;;;;6199391;28;24421;-84
2024/02/25 00:28:33;;;;;;;4.95;2.30;;;;;;;;;;6226317;28;24835;-84
2024/02/25 00:32:01;;;;;;;4.10;2.23;;;;;;;;;;6217345;28;24503;-84
2024/02/25 00:35:12;;;;;;;3.03;1.83;;;;;;;;;;6229797;28;24683;-84
2024/02/25 00:42:07;;;;;;;3.38;2.20;;;;;;;;;;6229392;28;24413;-83
2024/02/25 00:45:24;;;;;;;3.20;2.13;;;;;;;;;;6268656;28;24457;-85
2024/02/25 00:48:32;;;;;;;2.95;2.00;;;;;;;;;;6313162;27;24532;-83
2024/02/25 00:51:49;;;;;;;3.37;2.40;;;;;;;;;;6320635;28;24480;-83
2024/02/25 00:55:14;;;;;;;4.57;2.25;;;;;;;;;;6322585;28;24469;-85
2024/02/25 00:58:50;;;;;;;3.88;2.28;;;;;;;;;;6322069;28;24422;-82
2024/02/25 01:02:25;;;;;;;3.13;2.25;;;;;;;;;;6312260;28;24432;-84
2024/02/25 01:05:31;;;;;;;2.92;2.22;;;;;;;;;;6319368;28;24602;-85
2024/02/25 01:08:41;;;;;;;3.95;2.40;;;;;;;;;;6318756;28;24497;-85
2024/02/25 01:11:57;;;;;;;3.28;2.20;;;;;;;;;;6308524;28;24434;-83
2024/02/25 01:15:02;;;;;;;3.53;2.40;;;;;;;;;;6309798;28;24503;-84
2024/02/25 01:18:05;;;;;;;4.65;2.20;;;;;;;;;;6309514;28;24881;-85
2024/02/25 01:21:12;;;;;;;3.78;2.40;;;;;;;;;;6318474;28;24509;-85
2024/02/25 01:24:26;;;;;;;3.70;2.15;;;;;;;;;;6317449;28;24465;-84
2024/02/25 01:32:09;;;;;;;3.75;2.25;;;;;;;;;;6090048;29;24499;-83
2024/02/25 01:39:39;;;;;;;4.60;2.63;;;;;;;;;;6070656;29;24439;-85
2024/02/25 01:43:17;;;;;;;3.42;2.28;;;;;;;;;;6100826;29;24432;-85
2024/02/25 01:50:35;;;;;;;3.60;2.60;;;;;;;;;;6030863;29;24499;-83
2024/02/25 01:57:17;;;;;;;4.47;2.53;;;;;;;;;;6246566;28;24439;-85
2024/02/25 02:04:14;;;;;;;4.25;2.40;;;;;;;;;;6229888;28;24906;-84
2024/02/25 02:07:47;;;;;;;4.83;2.30;;;;;;;;;;6250586;28;24436;-85
2024/02/25 02:15:34;;;;;;;4.40;2.25;;;;;;;;;;6132243;28;24461;-85
2024/02/25 02:23:19;;;;;;;3.63;2.17;;;;;;;;;;6083069;29;24450;-84
2024/02/25 02:30:30;;;;;;;3.63;2.38;;;;;;;;;;6061847;29;24488;-83
2024/02/25 02:33:38;;;;;;;4.68;2.78;;;;;;;;;;6073905;29;25284;-85
2024/02/25 02:36:41;;;;;;;4.07;2.30;;;;;;;;;;6106983;29;24543;-85
2024/02/25 02:39:43;;;;;;;5.05;2.80;;;;;;;;;;6107655;29;24430;-83
2024/02/25 02:42:46;;;;;;;5.40;2.22;;;;;;;;;;6108027;29;24624;-84
2024/02/25 02:45:52;;;;;;;4.50;2.47;;;;;;;;;;6111127;29;24473;-85
2024/02/25 02:48:59;;;;;;;3.75;2.72;;;;;;;;;;6110129;29;24881;-83
2024/02/25 02:52:02;;;;;;;4.45;2.60;;;;;;;;;;6147400;28;25177;-85
2024/02/25 02:55:07;;;;;;;3.80;2.53;;;;;;;;;;6147058;28;24437;-84
2024/02/25 02:58:11;;;;;;;4.55;2.90;;;;;;;;;;6150992;28;24490;-85
2024/02/25 03:01:17;;;;;;;4.78;2.90;;;;;;;;;;6208305;28;24822;-84
2024/02/25 03:04:29;;;;;;;7.00;2.80;;;;;;;;;;6286861;28;24438;-84
2024/02/25 03:07:53;;;;;;;4.20;2.70;;;;;;;;;;6296260;28;24441;-85
2024/02/25 03:10:57;;;;;;;4.15;2.70;;;;;;;;;;6294686;28;24456;-85
2024/02/25 03:14:05;;;;;;;3.90;2.85;;;;;;;;;;6313040;28;24421;-83
2024/02/25 03:17:08;;;;;;;5.10;2.90;;;;;;;;;;6297782;28;24801;-84
2024/02/25 03:20:19;;;;;;;6.35;3.20;;;;;;;;;;6325969;28;24423;-85
2024/02/25 03:23:21;;;;;;;3.42;2.67;;;;;;;;;;6322246;28;24426;-84
2024/02/25 03:26:35;;;;;;;4.10;2.80;;;;;;;;;;6322058;28;24657;-84
2024/02/25 03:29:46;;;;;;;4.88;2.85;;;;;;;;;;6325554;28;24828;-84
2024/02/25 03:32:55;;;;;;;4.38;2.65;;;;;;;;;;6330750;28;24429;-85
2024/02/25 03:36:02;;;;;;;4.85;2.85;;;;;;;;;;6317980;28;24419;-83
2024/02/25 03:39:05;;;;;;;4.40;2.83;;;;;;;;;;6325920;28;24418;-85
2024/02/25 03:45:26;;;;;;;3.92;2.70;;;;;;;;;;6311276;28;24420;-85
2024/02/25 03:48:36;;;;;;;3.92;2.80;;;;;;;;;;6328558;28;24425;-86
2024/02/25 03:51:43;;;;;;;4.40;2.45;;;;;;;;;;6323196;28;24467;-83
2024/02/25 03:54:47;;;;;;;4.22;2.90;;;;;;;;;;6298429;28;24427;-84
2024/02/25 03:57:49;;;;;;;5.15;2.92;;;;;;;;;;6304217;28;24431;-85
2024/02/25 04:00:51;;;;;;;4.32;3.22;;;;;;;;;;6307575;28;24513;-86
2024/02/25 04:03:58;;;;;;;4.28;3.17;;;;;;;;;;6319374;28;24767;-86
2024/02/25 04:07:00;;;;;;;5.20;3.15;;;;;;;;;;6284879;28;24469;-84
2024/02/25 04:10:02;;;;;;;4.32;2.90;;;;;;;;;;6313941;28;24506;-85
2024/02/25 04:13:04;;;;;;;3.77;2.90;;;;;;;;;;6325088;28;24429;-86
2024/02/25 04:16:06;;;;;;;5.07;3.25;;;;;;;;;;6303900;28;24610;-86
2024/02/25 04:19:10;;;;;;;5.32;3.30;;;;;;;;;;6324082;28;24606;-85
2024/02/25 04:22:12;;;;;;;3.90;3.10;;;;;;;;;;6297680;28;24869;-84
2024/02/25 04:25:14;;;;;;;5.13;3.15;;;;;;;;;;6320077;28;24427;-85
2024/02/25 04:28:16;;;;;;;6.05;3.22;;;;;;;;;;6316317;28;24534;-82
2024/02/25 04:31:20;;;;;;;4.18;3.10;;;;;;;;;;6316323;28;24923;-84
2024/02/25 04:34:26;;;;;;;4.40;3.10;;;;;;;;;;6320016;28;24595;-86
2024/02/25 04:37:35;;;;;;;4.90;3.25;;;;;;;;;;6322014;28;24526;-84
2024/02/25 04:40:40;;;;;;;5.07;3.40;;;;;;;;;;6325456;28;24409;-85
2024/02/25 04:47:17;;;;;;;4.40;3.28;;;;;;;;;;6321216;28;24434;-84
2024/02/25 04:50:36;;;;;;;4.18;3.05;;;;;;;;;;6324791;28;24441;-84
2024/02/25 04:53:41;;;;;;;4.87;3.30;;;;;;;;;;6328408;28;24477;-85
2024/02/25 04:56:43;;;;;;;4.45;3.22;;;;;;;;;;6323082;28;24420;-84
2024/02/25 04:59:51;;;;;;;4.75;3.20;;;;;;;;;;6326190;28;24431;-85
2024/02/25 05:03:07;;;;;;;3.63;2.67;;;;;;;;;;6293768;28;24494;-85
2024/02/25 05:06:21;;;;;;;4.75;2.88;;;;;;;;;;6323470;28;24418;-84
2024/02/25 05:09:34;;;;;;;4.25;2.97;;;;;;;;;;6329179;28;24483;-84
2024/02/25 05:12:41;;;;;;;4.15;2.90;;;;;;;;;;6326210;28;24432;-84
2024/02/25 05:15:45;;;;;;;4.30;2.78;;;;;;;;;;6322211;28;24505;-86
2024/02/25 05:18:53;;;;;;;4.18;2.95;;;;;;;;;;6323732;28;24423;-85
2024/02/25 05:21:56;;;;;;;4.65;2.90;;;;;;;;;;6330993;28;24415;-83
2024/02/25 05:24:58;;;;;;;4.00;3.00;;;;;;;;;;6325144;28;24494;-84
2024/02/25 05:28:17;;;;;;;4.97;2.70;;;;;;;;;;6321361;28;24666;-83
2024/02/25 05:31:19;;;;;;;4.15;2.60;;;;;;;;;;6301371;28;24431;-84
2024/02/25 05:34:23;;;;;;;5.80;2.65;;;;;;;;;;6323658;28;24439;-85
2024/02/25 05:37:34;;;;;;;3.22;2.58;;;;;;;;;;6322572;28;24438;-83
2024/02/25 05:40:43;;;;;;;3.78;2.75;;;;;;;;;;6322042;28;24895;-84
2024/02/25 05:43:48;;;;;;;4.87;2.93;;;;;;;;;;6322151;28;24475;-88
2024/02/25 05:46:53;;;;;;;4.70;2.70;;;;;;;;;;6327002;28;24411;-83
2024/02/25 05:49:55;;;;;;;4.47;2.70;;;;;;;;;;6321634;28;24414;-84
2024/02/25 05:53:06;;;;;;;3.67;3.03;;;;;;;;;;6294009;28;24441;-85
2024/02/25 05:56:08;;;;;;;4.32;2.70;;;;;;;;;;6312702;28;24426;-85
2024/02/25 05:59:14;;;;;;;4.30;2.70;;;;;;;;;;6317198;28;24668;-84
2024/02/25 06:02:19;;;;;;;3.83;2.60;;;;;;;;;;6314421;28;24544;-85
2024/02/25 06:05:33;;;;;;;4.73;2.80;;;;;;;;;;6318509;28;24479;-84
2024/02/25 06:08:36;;;;;;;4.05;2.80;;;;;;;;;;6315750;28;25715;-84
2024/02/25 06:11:38;;;;;;;5.05;2.95;;;;;;;;;;6318629;28;24415;-84
2024/02/25 06:14:42;;;;;;;4.57;3.00;;;;;;;;;;6318905;28;24438;-85
2024/02/25 06:17:46;;;;;;;4.43;3.20;;;;;;;;;;6306170;28;24426;-86
2024/02/25 06:20:52;;;;;;;4.20;2.92;;;;;;;;;;6324492;28;24506;-86
2024/02/25 06:23:56;;;;;;;4.45;2.78;;;;;;;;;;6326400;28;24460;-86
2024/02/25 06:27:00;;;;;;;4.30;2.67;;;;;;;;;;6327373;28;24468;-83
2024/02/25 06:30:11;;;;;;;4.53;2.72;;;;;;;;;;6327683;28;24491;-85
2024/02/25 06:33:22;;;;;;;4.97;2.60;;;;;;;;;;6323749;28;24419;-85
2024/02/25 06:36:43;;;;;;;;;;;;;;;;;;;;;
2024/02/25 06:39:50;;;;;;;5.00;2.87;;;;;;;;;;6326410;28;24468;-84
2024/02/25 06:42:59;;;;;;;5.23;2.80;;;;;;;;;;6322186;28;24695;-84
2024/02/25 06:46:06;;;;;;;3.92;2.42;;;;;;;;;;6314919;28;24430;-84
2024/02/25 06:49:19;;;;;;;4.60;2.58;;;;;;;;;;6330468;28;24497;-85
2024/02/25 06:52:30;;;;;;;3.97;2.70;;;;;;;;;;6331435;28;24505;-85
2024/02/25 06:55:34;;;;;;;4.20;2.80;;;;;;;;;;6318401;28;24543;-86
2024/02/25 06:58:44;;;;;;;4.55;2.85;;;;;;;;;;6325012;28;24836;-86
2024/02/25 07:01:47;;;;;;;4.45;3.10;;;;;;;;;;6330147;28;24421;-86
2024/02/25 07:04:49;;;;;;;5.90;2.80;;;;;;;;;;6328308;28;24409;-85
2024/02/25 07:07:55;;;;;;;4.57;3.00;;;;;;;;;;6326852;28;24402;-86
2024/02/25 07:10:58;;;;;;;3.50;2.63;;;;;;;;;;6325545;28;24410;-87
2024/02/25 07:14:00;;;;;;;4.57;2.87;;;;;;;;;;6321666;28;24524;-87
2024/02/25 07:17:02;;;;;;;4.13;2.97;;;;;;;;;;6321572;28;24441;-87
2024/02/25 07:20:04;;;;;;;4.32;2.67;;;;;;;;;;6324497;28;24502;-86
2024/02/25 07:23:08;;;;;;;5.22;3.30;;;;;;;;;;6326743;28;24408;-86
2024/02/25 07:26:13;;;;;;;6.95;3.33;;;;;;;;;;6320202;28;24418;-85
2024/02/25 07:29:21;;;;;;;4.28;3.13;;;;;;;;;;6319288;28;24486;-85
2024/02/25 07:32:29;;;;;;;3.60;2.33;;;;;;;;;;6322692;28;24449;-84
2024/02/25 07:35:34;;;;;;;4.13;2.40;;;;;;;;;;6317363;28;24462;-85
2024/02/25 07:38:45;;;;;;;5.33;2.40;;;;;;;;;;6296467;28;24530;-85
2024/02/25 07:41:50;;;;;;;3.07;2.27;;;;;;;;;;6316396;28;24557;-84
2024/02/25 07:45:26;;;;;;;4.95;2.55;;;;;;;;;;6320559;28;24415;-84
2024/02/25 07:48:31;;;;;;;4.38;2.63;;;;;;;;;;6323335;28;24513;-86
2024/02/25 07:51:38;;;;;;;5.00;2.80;;;;;;;;;;6323264;28;24418;-87
2024/02/25 07:54:56;;;;;;;8.80;5.57;;;;;;;;;;6323593;28;24469;-85
2024/02/25 07:58:04;;;;;;;5.85;3.38;;;;;;;;;;6323994;28;24415;-86
2024/02/25 08:01:11;;;;;;;4.68;3.22;;;;;;;;;;6324753;28;24497;-85
2024/02/25 08:04:15;;;;;;;5.53;3.40;;;;;;;;;;6325340;28;24666;-85
2024/02/25 08:07:17;;;;;;;6.22;3.30;;;;;;;;;;6324788;28;24425;-84
2024/02/25 08:10:19;;;;;;;6.70;4.50;;;;;;;;;;6328602;28;24458;-86
2024/02/25 08:13:22;;;;;;;7.93;4.90;;;;;;;;;;6324526;28;24501;-85
2024/02/25 08:16:31;;;;;;;5.82;4.22;;;;;;;;;;6330278;28;24581;-86
2024/02/25 08:19:33;;;;;;;8.55;5.22;;;;;;;;;;6324192;28;24434;-85
2024/02/25 08:22:41;;;;;;;7.85;4.93;;;;;;;;;;6309105;28;24630;-85
2024/02/25 08:25:43;;;;;;;9.75;5.93;;;;;;;;;;6307857;28;24460;-86
2024/02/25 08:28:47;;;;;;;8.88;6.00;;;;;;;;;;6322613;28;24414;-85
2024/02/25 08:31:49;;;;;;;10.93;6.40;;;;;;;;;;6318410;28;24481;-86
2024/02/25 08:34:56;;;;;;;12.15;6.82;;;;;;;;;;6323704;28;24405;-85
2024/02/25 08:38:04;;;;;;;11.38;6.95;;;;;;;;;;6327216;28;24812;-84
2024/02/25 08:41:06;;;;;;;11.10;6.68;;;;;;;;;;6318053;28;24447;-85
2024/02/25 08:44:09;;;;;;;8.48;5.55;;;;;;;;;;6327253;28;24473;-84
2024/02/25 08:47:14;;;;;;;9.35;6.07;;;;;;;;;;6327706;28;24417;-86
2024/02/25 08:50:17;;;;;;;7.47;5.80;;;;;;;;;;6329955;28;24536;-84
2024/02/25 08:53:21;;;;;;;11.13;6.53;;;;;;;;;;6319308;28;24544;-85
2024/02/25 08:56:23;;;;;;;10.80;6.60;;;;;;;;;;6298435;28;24411;-86
2024/02/25 08:59:27;;;;;;;9.50;7.00;;;;;;;;;;6312484;28;24479;-85
2024/02/25 09:02:31;;;;;;;11.00;6.93;;;;;;;;;;6315404;28;24572;-83
2024/02/25 09:05:34;;;;;;;12.07;7.00;;;;;;;;;;6318287;28;24437;-85
2024/02/25 09:08:39;;;;;;;11.05;7.70;;;;;;;;;;6318641;28;24449;-86
2024/02/25 09:11:41;;;;;;;485.40;43.50;;;;;;;;;;6321041;28;24427;-86
2024/02/25 09:14:47;;;;;;;15.43;8.53;;;;;;;;;;6297597;28;24580;-86
2024/02/25 09:17:54;;;;;;;12.68;8.35;;;;;;;;;;6315058;28;24423;-86
2024/02/25 09:21:01;;;;;;;13.93;8.80;;;;;;;;;;6321639;28;24426;-87
2024/02/25 09:24:03;;;;;;;15.88;8.75;;;;;;;;;;6323354;28;24422;-85
2024/02/25 09:27:13;;;;;;;14.30;8.80;;;;;;;;;;6324062;28;24816;-85
2024/02/25 09:30:31;;;;;;;12.50;8.85;;;;;;;;;;6320063;28;24415;-86
2024/02/25 09:33:35;;;;;;;15.05;9.15;;;;;;;;;;6325308;28;24468;-86
2024/02/25 09:36:37;;;;;;;11.88;8.65;;;;;;;;;;6326300;28;24505;-86
2024/02/25 09:39:41;;;;;;;12.90;9.13;;;;;;;;;;6318552;28;24430;-85
2024/02/25 09:42:52;;;;;;;15.20;9.23;;;;;;;;;;6321815;28;24497;-85
2024/02/25 09:46:05;;;;;;;12.35;8.93;;;;;;;;;;6325419;28;24422;-85
2024/02/25 09:49:16;;;;;;;16.25;9.95;;;;;;;;;;6316844;28;24433;-84
2024/02/25 09:52:20;;;;;;;13.87;9.77;;;;;;;;;;6311109;28;24797;-84
2024/02/25 09:55:22;;;;;;;16.10;10.07;;;;;;;;;;6325868;28;24812;-87
2024/02/25 09:58:29;;;;;;;17.05;10.18;;;;;;;;;;6328702;28;24410;-87
2024/02/25 10:01:35;;;;;;;17.08;10.20;;;;;;;;;;6329986;28;24476;-83
2024/02/25 10:04:37;;;;;;;17.80;10.25;;;;;;;;;;6326249;28;24422;-84
2024/02/25 10:07:38;;;;;;;18.20;10.02;;;;;;;;;;6330654;28;24402;-84
2024/02/25 10:10:43;;;;;;;14.93;10.27;;;;;;;;;;6333729;28;24521;-87
2024/02/25 10:13:47;;;;;;;15.25;10.32;;;;;;;;;;6324753;28;24421;-86
2024/02/25 10:17:09;;;;;;;14.07;10.70;;;;;;;;;;6324278;28;24827;-84
2024/02/25 10:20:13;;;;;;;15.98;10.80;;;;;;;;;;6326746;28;24435;-85
2024/02/25 10:23:16;;;;;;;15.50;10.13;;;;;;;;;;6328228;28;24427;-85
2024/02/25 10:26:20;;;;;;;15.40;10.37;;;;;;;;;;6326240;28;24587;-86
2024/02/25 10:29:31;;;;;;;14.18;9.73;;;;;;;;;;6323732;28;24421;-86
2024/02/25 10:32:35;;;;;;;15.05;9.43;;;;;;;;;;6322553;28;24622;-84
2024/02/25 10:35:37;;;;;;;13.48;8.13;;;;;;;;;;6321228;28;24475;-86
2024/02/25 10:38:40;;;;;;;11.45;8.65;;;;;;;;;;6322834;28;24425;-87
2024/02/25 10:41:43;;;;;;;12.30;8.40;;;;;;;;;;6327926;28;24457;-84
2024/02/25 10:44:46;;;;;;;13.05;8.10;;;;;;;;;;6320763;28;24418;-85
2024/02/25 10:47:50;;;;;;;11.70;8.13;;;;;;;;;;6326554;28;24739;-86
2024/02/25 10:50:53;;;;;;;10.43;6.90;;;;;;;;;;6333172;28;24424;-86
2024/02/25 10:53:56;;;;;;;10.87;7.33;;;;;;;;;;6324643;28;24521;-85
2024/02/25 10:56:58;;;;;;;9.85;7.10;;;;;;;;;;6324219;28;24821;-85
2024/02/25 11:00:05;;;;;;;13.00;8.02;;;;;;;;;;6323042;28;24656;-86
2024/02/25 11:03:16;;;;;;;11.45;7.40;;;;;;;;;;6321119;28;24439;-87
2024/02/25 11:14:06;;;;;;;10.55;7.00;;;;;;;;;;6211355;28;24436;-85
2024/02/25 11:17:15;;;;;;;11.60;7.32;;;;;;;;;;6220478;28;24401;-84
2024/02/25 11:20:22;;;;;;;8.70;6.50;;;;;;;;;;6223751;28;24447;-85
2024/02/25 11:23:40;;;;;;;10.80;7.27;;;;;;;;;;6222855;28;24412;-84
2024/02/25 11:26:43;;;;;;;13.48;7.88;;;;;;;;;;6223271;28;24455;-84
2024/02/25 11:30:18;;;;;;;27.25;13.95;;;;;;;;;;6221485;28;24905;-82
2024/02/25 11:33:39;;;;;;;42.05;20.45;;;;;;;;;;6225971;28;24528;-84
2024/02/25 11:36:41;;;;;;;18.87;10.23;;;;;;;;;;6224634;28;24431;-84
2024/02/25 11:39:43;;;;;;;10.40;6.95;;;;;;;;;;6224279;28;24412;-83
2024/02/25 11:42:45;;;;;;;9.20;7.00;;;;;;;;;;6223373;28;24454;-84
2024/02/25 11:45:48;;;;;;;11.55;6.78;;;;;;;;;;6291097;28;24417;-84
2024/02/25 11:48:50;;;;;;;10.73;6.90;;;;;;;;;;6320219;28;24438;-84
2024/02/25 11:51:52;;;;;;;12.80;7.22;;;;;;;;;;6325251;28;24493;-83
2024/02/25 11:54:54;;;;;;;8.57;6.15;;;;;;;;;;6321888;28;24417;-85
2024/02/25 11:57:56;;;;;;;11.10;6.25;;;;;;;;;;6324645;28;24860;-83
2024/02/25 12:00:59;;;;;;;9.82;6.35;;;;;;;;;;6323218;28;24449;-85
2024/02/25 12:04:01;;;;;;;8.03;5.70;;;;;;;;;;6320049;28;24430;-84
2024/02/25 12:07:04;;;;;;;10.73;6.93;;;;;;;;;;6319230;28;24433;-84
2024/02/25 12:10:10;;;;;;;9.15;6.32;;;;;;;;;;6320430;28;24419;-83
2024/02/25 12:13:13;;;;;;;10.00;6.68;;;;;;;;;;6311735;28;24829;-85
2024/02/25 12:16:19;;;;;;;9.55;5.32;;;;;;;;;;6319161;28;24422;-86
2024/02/25 12:19:21;;;;;;;7.05;5.40;;;;;;;;;;6322932;28;24454;-85
2024/02/25 12:22:23;;;;;;;13.65;9.07;;;;;;;;;;6321665;28;24499;-83
2024/02/25 12:25:25;;;;;;;9.07;5.68;;;;;;;;;;6322732;28;24451;-83
2024/02/25 12:28:30;;;;;;;8.55;5.65;;;;;;;;;;6325741;28;24525;-82
2024/02/25 12:31:33;;;;;;;10.95;6.68;;;;;;;;;;6323073;28;24473;-84
2024/02/25 12:34:35;;;;;;;9.73;5.90;;;;;;;;;;6325603;28;24433;-85
2024/02/25 12:37:37;;;;;;;7.60;5.18;;;;;;;;;;6324385;28;24440;-83
2024/02/25 12:40:44;;;;;;;6.70;4.40;;;;;;;;;;6321573;28;24824;-85
2024/02/25 12:43:51;;;;;;;5.40;4.15;;;;;;;;;;6319135;28;24426;-83
2024/02/25 12:46:54;;;;;;;6.57;4.10;;;;;;;;;;6324421;28;24479;-83
2024/02/25 12:49:56;;;;;;;5.72;4.07;;;;;;;;;;6323072;28;24420;-84
2024/02/25 12:53:00;;;;;;;5.65;4.30;;;;;;;;;;6325416;28;24901;-86
2024/02/25 12:56:03;;;;;;;5.70;4.00;;;;;;;;;;6324844;28;24429;-83
2024/02/25 12:59:07;;;;;;;11.17;5.33;;;;;;;;;;6322855;28;24409;-85
2024/02/25 13:02:10;;;;;;;7.10;4.40;;;;;;;;;;6324718;28;24426;-83
2024/02/25 13:05:14;;;;;;;8.68;6.20;;;;;;;;;;6320041;28;24432;-83
2024/02/25 13:08:24;;;;;;;5.90;4.60;;;;;;;;;;6320033;28;24641;-86
2024/02/25 13:11:26;;;;;;;6.35;4.30;;;;;;;;;;6319795;28;24429;-88
2024/02/25 13:14:28;;;;;;;7.72;4.28;;;;;;;;;;6322264;28;24412;-88
2024/02/25 13:17:32;;;;;;;4.90;4.10;;;;;;;;;;6321249;28;24421;-86
2024/02/25 13:20:33;;;;;;;8.05;4.53;;;;;;;;;;6324599;28;24452;-86
2024/02/25 13:23:43;;;;;;;7.40;4.45;;;;;;;;;;6320921;28;24423;-85
2024/02/25 13:26:49;;;;;;;6.37;4.30;;;;;;;;;;6317493;28;24510;-83
2024/02/25 13:29:52;;;;;;;5.30;4.00;;;;;;;;;;6296222;28;24453;-84
2024/02/25 13:32:56;;;;;;;4.40;3.65;;;;;;;;;;6315080;28;24430;-84
2024/02/25 13:35:58;;;;;;;5.03;4.10;;;;;;;;;;6317471;28;24430;-83
2024/02/25 13:39:03;;;;;;;4.72;3.53;;;;;;;;;;6316264;28;24606;-84
2024/02/25 13:42:08;;;;;;;5.25;3.47;;;;;;;;;;6314714;28;25032;-84
2024/02/25 13:45:10;;;;;;;5.95;3.72;;;;;;;;;;6291396;28;24422;-86
2024/02/25 13:48:14;;;;;;;5.07;3.50;;;;;;;;;;6322753;28;24429;-85
2024/02/25 13:51:20;;;;;;;5.05;3.55;;;;;;;;;;6322706;28;24833;-87
2024/02/25 13:54:22;;;;;;;4.20;3.07;;;;;;;;;;6315861;28;24429;-83
2024/02/25 13:57:24;;;;;;;5.22;3.25;;;;;;;;;;6322355;28;24506;-84
2024/02/25 14:00:26;;;;;;;4.10;2.80;;;;;;;;;;6320680;28;24425;-83
2024/02/25 14:03:29;;;;;;;5.32;3.40;;;;;;;;;;6320524;28;24422;-85
2024/02/25 14:06:36;;;;;;;4.63;3.70;;;;;;;;;;6320207;28;24473;-84
2024/02/25 14:09:41;;;;;;;4.68;3.53;;;;;;;;;;6319421;28;24909;-86
2024/02/25 14:12:54;;;;;;;5.53;3.63;;;;;;;;;;6325334;28;24603;-88
2024/02/25 14:15:56;;;;;;;5.77;3.30;;;;;;;;;;6323551;28;24832;-88
2024/02/25 14:18:59;;;;;;;8.27;3.95;;;;;;;;;;6320898;28;24802;-86
2024/02/25 14:22:02;;;;;;;5.43;3.47;;;;;;;;;;6322570;28;24426;-85
2024/02/25 14:25:10;;;;;;;4.90;3.57;;;;;;;;;;6325913;28;24510;-85
2024/02/25 14:28:16;;;;;;;6.25;3.50;;;;;;;;;;6318187;28;24458;-84
2024/02/25 14:31:17;;;;;;;4.77;3.50;;;;;;;;;;6320679;28;24567;-87
2024/02/25 14:34:25;;;;;;;5.00;3.57;;;;;;;;;;6320620;28;24432;-85
2024/02/25 14:37:33;;;;;;;4.80;3.35;;;;;;;;;;6320268;28;24433;-84
2024/02/25 14:40:36;;;;;;;4.95;3.92;;;;;;;;;;6323558;28;24461;-84
2024/02/25 14:43:46;;;;;;;4.57;3.60;;;;;;;;;;6324994;28;24420;-86
2024/02/25 14:46:50;;;;;;;4.93;3.80;;;;;;;;;;6320957;28;24414;-85
2024/02/25 14:49:55;;;;;;;4.75;3.22;;;;;;;;;;6323278;28;24701;-87
2024/02/25 14:52:57;;;;;;;4.47;3.58;;;;;;;;;;6323503;28;24410;-85
2024/02/25 14:55:59;;;;;;;5.90;3.70;;;;;;;;;;6326648;28;24418;-84
2024/02/25 14:59:01;;;;;;;5.78;3.63;;;;;;;;;;6324840;28;24418;-85
2024/02/25 15:02:03;;;;;;;5.10;3.92;;;;;;;;;;6323974;28;24534;-84
2024/02/25 15:05:08;;;;;;;7.38;3.83;;;;;;;;;;6322109;28;24410;-84
2024/02/25 15:08:10;;;;;;;5.53;3.83;;;;;;;;;;6322669;28;24482;-84
2024/02/25 15:11:18;;;;;;;6.57;3.83;;;;;;;;;;6300087;28;24423;-85
2024/02/25 15:14:25;;;;;;;5.63;3.95;;;;;;;;;;6314441;28;24944;-83
2024/02/25 15:17:31;;;;;;;4.97;3.78;;;;;;;;;;6320060;28;24430;-86
2024/02/25 15:20:34;;;;;;;5.30;3.60;;;;;;;;;;6303520;28;24569;-85
2024/02/25 15:27:07;;;;;;;6.32;4.00;;;;;;;;;;6318243;28;24504;-82
2024/02/25 15:30:10;;;;;;;42.00;26.42;;;;;;;;;;6324270;28;24825;-81
2024/02/25 15:33:13;;;;;;;5.05;3.95;;;;;;;;;;6323575;28;24420;-83
2024/02/25 15:36:16;;;;;;;42.30;20.70;;;;;;;;;;6321086;28;24419;-82
2024/02/25 15:39:19;;;;;;;60.75;32.95;;;;;;;;;;6324039;28;24437;-81
2024/02/25 15:42:27;;;;;;;88.57;48.42;;;;;;;;;;6329120;28;24410;-82
2024/02/25 15:45:41;;;;;;;45.38;25.52;;;;;;;;;;6324261;28;24847;-82
2024/02/25 15:48:43;;;;;;;7.93;5.20;;;;;;;;;;6327783;28;24409;-85
2024/02/25 15:51:46;;;;;;;5.78;3.80;;;;;;;;;;6330275;28;24431;-82
2024/02/25 15:54:57;;;;;;;4.80;3.38;;;;;;;;;;6298539;28;24428;-83
2024/02/25 15:58:02;;;;;;;4.72;3.60;;;;;;;;;;6326162;28;24421;-86
2024/02/25 16:01:09;;;;;;;5.55;3.60;;;;;;;;;;6320750;28;24500;-83
2024/02/25 16:04:49;;;;;;;5.35;3.47;;;;;;;;;;6325668;28;25176;-84
2024/02/25 16:08:23;;;;;;;6.05;4.50;;;;;;;;;;6215906;28;24494;-83
2024/02/25 16:11:29;;;;;;;5.72;4.50;;;;;;;;;;6219187;28;24605;-83
2024/02/25 16:14:39;;;;;;;6.53;4.50;;;;;;;;;;6224438;28;24794;-83
2024/02/25 16:18:01;;;;;;;7.70;4.80;;;;;;;;;;6212217;28;24432;-84
2024/02/25 16:21:03;;;;;;;6.35;4.78;;;;;;;;;;6209196;28;24421;-83
2024/02/25 16:24:19;;;;;;;7.00;4.82;;;;;;;;;;6200689;28;24519;-84
2024/02/25 16:27:26;;;;;;;5.90;4.43;;;;;;;;;;6197013;28;24419;-82
2024/02/25 16:30:33;;;;;;;6.27;4.30;;;;;;;;;;6199379;28;24938;-84
2024/02/25 16:33:43;;;;;;;6.13;4.25;;;;;;;;;;6197696;28;24903;-83
2024/02/25 16:36:56;;;;;;;6.28;4.47;;;;;;;;;;6200861;28;24424;-83
2024/02/25 16:40:04;;;;;;;5.85;4.30;;;;;;;;;;6195420;28;24683;-83
2024/02/25 16:43:20;;;;;;;6.70;4.45;;;;;;;;;;6219158;28;24522;-83
2024/02/25 16:46:25;;;;;;;6.78;4.60;;;;;;;;;;6272320;28;24431;-84
2024/02/25 16:49:30;;;;;;;6.93;5.30;;;;;;;;;;6299715;28;24555;-83
2024/02/25 16:52:33;;;;;;;8.23;5.18;;;;;;;;;;6294222;28;24446;-84
2024/02/25 16:55:36;;;;;;;7.95;5.80;;;;;;;;;;6297121;28;24453;-84
2024/02/25 16:58:38;;;;;;;8.60;5.72;;;;;;;;;;6288346;28;24435;-86
2024/02/25 17:01:41;;;;;;;9.05;6.20;;;;;;;;;;6297391;28;24413;-84
2024/02/25 17:04:43;;;;;;;7.95;6.10;;;;;;;;;;6296176;28;24837;-85
2024/02/25 17:07:45;;;;;;;7.10;6.13;;;;;;;;;;6299369;28;24434;-84
2024/02/25 17:10:54;;;;;;;9.27;6.40;;;;;;;;;;6295278;28;24430;-82
2024/02/25 17:17:47;;;;;;;9.30;6.82;;;;;;;;;;6293787;28;24451;-84
2024/02/25 17:20:58;;;;;;;11.82;6.63;;;;;;;;;;6300584;28;24429;-82
2024/02/25 17:24:04;;;;;;;9.05;6.30;;;;;;;;;;6288360;28;22151;-83
2024/02/25 18:04:30;;;;;;;9.23;7.18;;;;;;;;;;5969149;29;24726;-85
2024/02/25 18:07:58;;;;;;;8.80;6.88;;;;;;;;;;6109205;28;24440;-84
2024/02/25 18:11:20;;;;;;;8.57;6.25;;;;;;;;;;6149958;28;24458;-85
2024/02/25 18:14:33;;;;;;;9.13;7.13;;;;;;;;;;6155485;28;24418;-84
2024/02/25 18:18:11;;;;;;;11.00;7.75;;;;;;;;;;6195196;28;24432;-84
2024/02/25 18:25:48;;;;;;;11.70;8.63;;;;;;;;;;6098710;29;24428;-84
2024/02/25 18:29:29;;;;;;;10.73;8.73;;;;;;;;;;6085633;28;24640;-84
2024/02/25 19:10:51;;;;;;;10.48;7.20;;;;;;;;;;5934084;29;24443;-86
2024/02/25 19:14:58;;;;;;;;;;;;;;;;;;;;;
2024/02/25 19:33:45;;;;;;;10.77;8.70;;;;;;;;;;5894506;30;24433;-85
2024/02/25 19:36:56;;;;;;;12.88;9.55;;;;;;;;;;5893389;30;24460;-85
2024/02/25 19:40:03;;;;;;;14.32;10.93;;;;;;;;;;5899076;30;24737;-84
2024/02/25 19:43:10;;;;;;;15.68;10.90;;;;;;;;;;5902500;29;24432;-85
2024/02/25 19:46:17;;;;;;;16.70;11.13;;;;;;;;;;5970967;29;24447;-88
2024/02/25 19:49:23;;;;;;;17.83;10.82;;;;;;;;;;6046693;29;24633;-85
2024/02/25 19:52:32;;;;;;;13.90;9.73;;;;;;;;;;6047213;29;24464;-87
2024/02/25 19:55:34;;;;;;;18.20;11.27;;;;;;;;;;6134937;29;24462;-84
2024/02/25 20:02:00;;;;;;;13.25;9.80;;;;;;;;;;6116221;28;24468;-85
2024/02/25 20:05:10;;;;;;;12.82;9.55;;;;;;;;;;6260711;28;24424;-85
2024/02/25 20:08:21;;;;;;;12.55;9.60;;;;;;;;;;6272418;28;24496;-88
2024/02/25 20:11:38;;;;;;;11.80;8.88;;;;;;;;;;6299654;28;24477;-85
2024/02/25 20:14:45;;;;;;;13.43;9.43;;;;;;;;;;6293923;28;24466;-83
2024/02/25 20:18:04;;;;;;;13.07;10.10;;;;;;;;;;6294807;28;24430;-85
2024/02/25 20:21:39;;;;;;;12.43;9.57;;;;;;;;;;6293240;28;24433;-84
2024/02/25 20:25:13;;;;;;;13.43;9.80;;;;;;;;;;6330453;28;24539;-84
2024/02/25 20:28:19;;;;;;;14.52;9.68;;;;;;;;;;6324259;28;24670;-84
2024/02/25 20:31:43;;;;;;;11.57;9.00;;;;;;;;;;6295797;28;24528;-84
2024/02/25 20:35:11;;;;;;;12.10;9.47;;;;;;;;;;6323032;28;24414;-85
2024/02/25 20:38:13;;;;;;;12.40;9.18;;;;;;;;;;6302931;28;24820;-85
2024/02/25 20:41:39;;;;;;;14.70;9.43;;;;;;;;;;6315303;28;24406;-85
2024/02/25 20:45:18;;;;;;;13.20;9.40;;;;;;;;;;6283390;28;24598;-85
2024/02/25 20:48:20;;;;;;;12.68;9.13;;;;;;;;;;6313013;28;24417;-86
2024/02/25 20:51:43;;;;;;;;;;;;;;;;;;;;;
2024/02/25 20:54:55;;;;;;;14.70;10.57;;;;;;;;;;6320033;28;24828;-87
2024/02/25 21:01:32;;;;;;;13.02;9.60;;;;;;;;;;6291802;28;24774;-85
2024/02/25 21:04:57;;;;;;;13.43;9.60;;;;;;;;;;6304450;28;24630;-83
2024/02/25 21:15:58;;;;;;;;;;;;;;;;;;;;;
2024/02/25 21:19:13;;;;;;;12.02;9.65;;;;;;;;;;6211609;28;24497;-86
2024/02/25 21:26:46;;;;;;;;;;;;;;;;;;;;;
2024/02/25 21:30:22;;;;;;;14.80;10.50;;;;;;;;;;6109315;28;24559;-86
2024/02/25 21:33:56;;;;;;;14.30;10.18;;;;;;;;;;6241103;28;24830;-86
2024/02/25 21:37:13;;;;;;;16.98;10.98;;;;;;;;;;6246654;28;24497;-85
2024/02/25 21:44:33;;;;;;;14.05;10.35;;;;;;;;;;6242137;28;24839;-84
2024/02/25 21:51:41;;;;;;;14.88;9.82;;;;;;;;;;6246371;28;24493;-85
2024/02/25 21:55:28;;;;;;;13.38;10.02;;;;;;;;;;6326715;28;24429;-84